createdAt,value
2018-09-10T00:00:08.485Z,21.77
2018-09-10T00:02:36.162Z,21.82
2018-09-10T00:05:04.002Z,21.74
2018-09-10T00:07:31.724Z,21.76
2018-09-10T00:09:59.402Z,21.66
2018-09-10T00:12:27.170Z,21.28
2018-09-10T00:14:54.890Z,21.31
2018-09-10T00:17:22.556Z,21.39
2018-09-10T00:19:50.218Z,21.48
2018-09-10T00:22:17.936Z,21.49
2018-09-10T00:24:45.608Z,21.31
2018-09-10T00:27:13.276Z,21.43
2018-09-10T00:29:41.009Z,21.48
2018-09-10T00:32:08.672Z,21.42
2018-09-10T00:34:36.335Z,21.29
2018-09-10T00:37:04.082Z,21.25
2018-09-10T00:39:31.738Z,21.31
2018-09-10T00:41:59.398Z,21.34
2018-09-10T00:44:27.082Z,21.35
2018-09-10T00:46:54.801Z,21.36
2018-09-10T00:49:22.465Z,21.05
2018-09-10T00:51:50.180Z,21.02
2018-09-10T00:54:17.843Z,20.82
2018-09-10T00:56:45.521Z,20.88
2018-09-10T00:59:13.237Z,20.87
2018-09-10T01:01:40.902Z,20.70
2018-09-10T01:04:08.573Z,20.43
2018-09-10T01:06:36.297Z,20.39
2018-09-10T01:09:06.377Z,20.36
2018-09-10T01:11:34.070Z,20.43
2018-09-10T01:14:01.865Z,20.50
2018-09-10T01:16:29.569Z,20.37
2018-09-10T01:18:57.250Z,20.19
2018-09-10T01:21:24.957Z,20.24
2018-09-10T01:23:52.633Z,20.24
2018-09-10T01:26:20.319Z,20.00
2018-09-10T01:28:47.997Z,19.80
2018-09-10T01:31:15.678Z,19.76
2018-09-10T01:33:48.761Z,19.81
2018-09-10T01:36:16.478Z,19.81
2018-09-10T01:38:44.145Z,19.76
2018-09-10T01:41:11.843Z,19.59
2018-09-10T01:43:39.517Z,19.40
2018-09-10T01:46:07.193Z,19.48
2018-09-10T01:48:34.902Z,19.49
2018-09-10T01:51:02.581Z,19.56
2018-09-10T01:53:30.260Z,19.58
2018-09-10T01:55:58.129Z,19.56
2018-09-10T01:58:25.790Z,19.60
2018-09-10T02:00:53.482Z,19.52
2018-09-10T02:03:21.207Z,19.30
2018-09-10T02:05:48.877Z,19.07
2018-09-10T02:08:16.537Z,19.18
2018-09-10T02:10:44.216Z,19.03
2018-09-10T02:13:11.889Z,18.83
2018-09-10T02:15:45.323Z,18.69
2018-09-10T02:18:13.006Z,18.65
2018-09-10T02:20:40.697Z,18.69
2018-09-10T02:23:08.401Z,18.64
2018-09-10T02:25:36.077Z,18.46
2018-09-10T02:28:03.826Z,18.50
2018-09-10T02:30:31.706Z,18.47
2018-09-10T02:32:59.422Z,18.56
2018-09-10T02:35:27.119Z,18.56
2018-09-10T02:37:54.825Z,18.57
2018-09-10T02:40:22.498Z,18.61
2018-09-10T02:42:50.236Z,18.65
2018-09-10T02:45:17.958Z,18.79
2018-09-10T02:47:45.610Z,18.87
2018-09-10T02:50:13.303Z,18.84
2018-09-10T02:52:41.021Z,18.85
2018-09-10T02:55:08.718Z,18.77
2018-09-10T02:57:36.397Z,18.79
2018-09-10T03:00:04.476Z,18.62
2018-09-10T03:02:32.158Z,18.48
2018-09-10T03:04:59.821Z,18.17
2018-09-10T03:07:27.562Z,18.08
2018-09-10T03:09:55.246Z,18.19
2018-09-10T03:12:22.994Z,18.38
2018-09-10T03:14:50.711Z,18.48
2018-09-10T03:17:18.446Z,18.56
2018-09-10T03:19:46.139Z,18.69
2018-09-10T03:22:13.842Z,18.72
2018-09-10T03:24:41.530Z,18.67
2018-09-10T03:27:09.197Z,18.56
2018-09-10T03:29:36.895Z,18.55
2018-09-10T03:32:04.602Z,18.33
2018-09-10T03:34:32.277Z,18.24
2018-09-10T03:36:59.979Z,18.21
2018-09-10T03:39:27.678Z,18.24
2018-09-10T03:41:55.358Z,18.31
2018-09-10T03:44:23.068Z,18.39
2018-09-10T03:46:50.745Z,18.44
2018-09-10T03:49:18.401Z,18.53
2018-09-10T03:51:46.121Z,18.71
2018-09-10T03:54:13.769Z,18.84
2018-09-10T03:56:41.442Z,19.05
2018-09-10T03:59:09.165Z,19.27
2018-09-10T04:01:36.870Z,19.41
2018-09-10T04:04:04.564Z,19.44
2018-09-10T04:06:32.285Z,19.43
2018-09-10T04:08:59.961Z,19.37
2018-09-10T04:11:27.699Z,19.37
2018-09-10T04:13:55.387Z,19.45
2018-09-10T04:16:23.042Z,19.87
2018-09-10T04:18:50.906Z,19.81
2018-09-10T04:21:18.718Z,19.65
2018-09-10T04:23:46.389Z,19.77
2018-09-10T04:26:14.042Z,19.90
2018-09-10T04:28:41.750Z,19.89
2018-09-10T04:31:09.418Z,19.82
2018-09-10T04:33:37.174Z,19.90
2018-09-10T04:36:04.962Z,19.93
2018-09-10T04:38:32.652Z,20.14
2018-09-10T04:41:00.313Z,20.33
2018-09-10T04:43:28.021Z,20.52
2018-09-10T04:45:55.694Z,20.85
2018-09-10T04:48:23.383Z,20.95
2018-09-10T04:50:51.093Z,21.21
2018-09-10T04:53:18.814Z,21.18
2018-09-10T04:55:46.470Z,21.47
2018-09-10T04:58:14.363Z,21.62
2018-09-10T05:00:41.964Z,21.61
2018-09-10T05:03:09.682Z,21.71
2018-09-10T05:05:37.398Z,21.61
2018-09-10T05:08:05.080Z,21.77
2018-09-10T05:12:59.786Z,21.51
2018-09-10T05:15:27.441Z,21.67
2018-09-10T05:17:55.171Z,21.76
2018-09-10T05:20:23.011Z,22.03
2018-09-10T05:22:50.714Z,22.16
2018-09-10T05:25:25.033Z,21.94
2018-09-10T05:27:52.751Z,21.77
2018-09-10T05:30:20.514Z,22.07
2018-09-10T05:32:48.399Z,21.64
2018-09-10T05:35:16.235Z,21.88
2018-09-10T05:37:43.936Z,21.61
2018-09-10T05:40:11.723Z,22.38
2018-09-10T05:42:39.542Z,22.00
2018-09-10T05:45:09.682Z,21.41
2018-09-10T05:47:37.473Z,21.41
2018-09-10T05:50:05.220Z,21.28
2018-09-10T05:52:32.924Z,21.88
2018-09-10T05:55:00.647Z,22.25
2018-09-10T05:57:28.342Z,22.72
2018-09-10T05:59:56.027Z,23.09
2018-09-10T06:02:23.734Z,24.76
2018-09-10T06:04:51.410Z,25.18
2018-09-10T06:07:19.110Z,27.02
2018-09-10T06:09:46.862Z,27.80
2018-09-10T06:12:14.536Z,27.37
2018-09-10T06:14:42.250Z,26.72
2018-09-10T06:17:09.950Z,27.31
2018-09-10T06:19:37.619Z,27.67
2018-09-10T06:22:05.560Z,28.09
2018-09-10T06:24:33.320Z,28.31
2018-09-10T06:27:01.007Z,28.25
2018-09-10T06:29:28.752Z,26.21
2018-09-10T06:31:57.543Z,24.83
2018-09-10T06:34:25.293Z,26.25
2018-09-10T06:36:53.025Z,27.00
2018-09-10T06:39:20.725Z,28.34
2018-09-10T06:41:48.412Z,28.85
2018-09-10T06:44:16.085Z,27.50
2018-09-10T06:46:43.803Z,26.45
2018-09-10T06:49:11.485Z,26.42
2018-09-10T06:51:39.259Z,25.90
2018-09-10T06:54:07.138Z,24.53
2018-09-10T06:56:34.992Z,24.67
2018-09-10T06:59:02.890Z,25.08
2018-09-10T07:01:30.695Z,25.36
2018-09-10T07:03:58.425Z,26.29
2018-09-10T07:06:26.262Z,26.94
2018-09-10T07:08:54.015Z,27.47
2018-09-10T07:11:21.734Z,28.09
2018-09-10T07:13:49.510Z,27.63
2018-09-10T07:16:17.654Z,28.25
2018-09-10T07:18:45.596Z,28.59
2018-09-10T07:21:14.142Z,28.43
2018-09-10T07:23:41.925Z,28.27
2018-09-10T07:26:09.586Z,27.12
2018-09-10T07:28:37.274Z,27.57
2018-09-10T07:31:05.074Z,27.15
2018-09-10T07:33:32.754Z,27.01
2018-09-10T07:36:01.453Z,26.45
2018-09-10T07:38:29.180Z,27.02
2018-09-10T07:40:56.957Z,27.02
2018-09-10T07:43:24.768Z,27.71
2018-09-10T07:45:52.639Z,27.02
2018-09-10T07:48:20.370Z,27.66
2018-09-10T07:50:48.087Z,27.55
2018-09-10T07:53:15.810Z,27.60
2018-09-10T07:55:43.519Z,28.30
2018-09-10T07:58:11.264Z,28.92
2018-09-10T08:00:39.061Z,27.69
2018-09-10T08:03:06.888Z,27.67
2018-09-10T08:05:34.491Z,27.91
2018-09-10T08:08:02.221Z,28.05
2018-09-10T08:10:29.941Z,27.73
2018-09-10T08:12:57.655Z,26.95
2018-09-10T08:15:25.431Z,26.91
2018-09-10T08:17:53.151Z,27.65
2018-09-10T08:20:20.909Z,26.97
2018-09-10T08:22:48.657Z,27.42
2018-09-10T08:25:16.456Z,27.45
2018-09-10T08:27:44.161Z,28.46
2018-09-10T08:30:11.882Z,27.17
2018-09-10T08:32:39.894Z,27.02
2018-09-10T08:35:07.715Z,27.08
2018-09-10T08:37:35.595Z,26.70
2018-09-10T08:40:03.390Z,28.03
2018-09-10T08:42:31.100Z,28.43
2018-09-10T08:44:59.387Z,27.31
2018-09-10T08:47:27.046Z,27.16
2018-09-10T08:49:54.923Z,27.73
2018-09-10T08:52:22.671Z,28.08
2018-09-10T08:54:50.621Z,27.54
2018-09-10T08:57:18.092Z,27.64
2018-09-10T08:59:45.941Z,28.07
2018-09-10T09:02:13.631Z,28.28
2018-09-10T09:04:41.323Z,28.99
2018-09-10T09:07:09.034Z,28.74
2018-09-10T09:09:37.508Z,27.54
2018-09-10T09:12:05.190Z,27.91
2018-09-10T09:14:32.895Z,28.80
2018-09-10T09:17:00.581Z,28.96
2018-09-10T09:19:28.369Z,28.83
2018-09-10T09:21:56.174Z,29.49
2018-09-10T09:24:23.902Z,29.65
2018-09-10T09:26:51.805Z,29.10
2018-09-10T09:29:19.647Z,29.07
2018-09-10T09:31:47.485Z,29.23
2018-09-10T09:34:15.259Z,29.92
2018-09-10T09:36:48.444Z,30.68
2018-09-10T09:39:21.756Z,31.06
2018-09-10T09:41:54.994Z,29.49
2018-09-10T09:44:28.110Z,29.34
2018-09-10T09:46:56.041Z,30.73
2018-09-10T09:49:23.731Z,30.91
2018-09-10T09:51:51.511Z,29.33
2018-09-10T09:54:19.285Z,29.80
2018-09-10T09:56:47.096Z,30.51
2018-09-10T09:59:14.780Z,32.30
2018-09-10T10:01:46.379Z,31.52
2018-09-10T10:04:14.197Z,30.40
2018-09-10T10:06:41.881Z,31.29
2018-09-10T10:09:11.591Z,31.52
2018-09-10T10:11:39.835Z,30.81
2018-09-10T10:14:08.013Z,30.08
2018-09-10T10:16:36.085Z,30.90
2018-09-10T10:19:03.847Z,30.81
2018-09-10T10:21:31.584Z,31.06
2018-09-10T10:23:59.387Z,31.16
2018-09-10T10:26:27.087Z,31.06
2018-09-10T10:28:54.846Z,31.59
2018-09-10T10:31:22.571Z,29.85
2018-09-10T10:33:50.261Z,29.26
2018-09-10T10:36:17.959Z,29.26
2018-09-10T10:38:45.711Z,29.82
2018-09-10T10:41:13.407Z,30.88
2018-09-10T10:43:41.127Z,30.53
2018-09-10T10:46:08.843Z,30.34
2018-09-10T10:48:36.544Z,29.98
2018-09-10T10:51:04.343Z,29.38
2018-09-10T10:53:32.135Z,30.03
2018-09-10T10:55:59.869Z,30.38
2018-09-10T10:58:27.588Z,30.11
2018-09-10T11:00:55.341Z,30.12
2018-09-10T11:03:23.103Z,30.81
2018-09-10T11:05:50.805Z,29.91
2018-09-10T11:08:18.493Z,29.75
2018-09-10T11:10:46.187Z,30.85
2018-09-10T11:13:13.900Z,31.61
2018-09-10T11:15:41.894Z,32.90
2018-09-10T11:18:09.605Z,34.33
2018-09-10T11:20:37.319Z,33.82
2018-09-10T11:23:05.062Z,32.10
2018-09-10T11:25:32.787Z,32.17
2018-09-10T11:28:00.839Z,33.05
2018-09-10T11:30:28.686Z,33.15
2018-09-10T11:32:56.561Z,31.74
2018-09-10T11:35:24.356Z,30.93
2018-09-10T11:37:52.159Z,30.53
2018-09-10T11:40:19.864Z,29.63
2018-09-10T11:42:47.544Z,29.62
2018-09-10T11:45:15.252Z,29.52
2018-09-10T11:47:42.937Z,29.82
2018-09-10T11:50:10.652Z,30.17
2018-09-10T11:52:38.413Z,30.28
2018-09-10T11:55:06.185Z,29.99
2018-09-10T11:57:33.867Z,29.81
2018-09-10T12:00:01.638Z,30.91
2018-09-10T12:02:29.292Z,30.00
2018-09-10T12:04:57.011Z,29.87
2018-09-10T12:07:24.708Z,29.96
2018-09-10T12:09:52.380Z,30.02
2018-09-10T12:12:20.088Z,29.76
2018-09-10T12:14:47.847Z,29.95
2018-09-10T12:17:15.560Z,30.39
2018-09-10T12:19:43.439Z,30.88
2018-09-10T12:22:11.207Z,30.44
2018-09-10T12:24:38.917Z,30.69
2018-09-10T12:27:06.784Z,29.86
2018-09-10T12:29:34.527Z,30.08
2018-09-10T12:32:02.590Z,29.68
2018-09-10T12:34:30.291Z,29.83
2018-09-10T12:36:58.081Z,30.18
2018-09-10T12:39:26.050Z,29.65
2018-09-10T12:41:53.794Z,30.42
2018-09-10T12:44:21.570Z,30.57
2018-09-10T12:46:49.278Z,30.80
2018-09-10T12:49:16.998Z,30.93
2018-09-10T12:51:44.809Z,30.76
2018-09-10T12:54:12.553Z,31.22
2018-09-10T12:56:40.367Z,30.75
2018-09-10T12:59:08.189Z,29.58
2018-09-10T13:01:35.965Z,29.77
2018-09-10T13:04:03.752Z,30.14
2018-09-10T13:06:31.518Z,30.20
2018-09-10T13:08:59.234Z,30.81
2018-09-10T13:11:27.002Z,30.99
2018-09-10T13:13:54.724Z,31.87
2018-09-10T13:16:22.484Z,31.50
2018-09-10T13:18:50.246Z,32.23
2018-09-10T13:21:17.973Z,30.52
2018-09-10T13:23:45.709Z,30.66
2018-09-10T13:26:13.479Z,29.49
2018-09-10T13:28:41.265Z,29.24
2018-09-10T13:31:08.965Z,29.57
2018-09-10T13:33:36.745Z,30.92
2018-09-10T13:36:04.442Z,32.12
2018-09-10T13:38:32.182Z,32.02
2018-09-10T13:40:59.892Z,31.83
2018-09-10T13:43:27.612Z,30.77
2018-09-10T13:45:55.497Z,31.40
2018-09-10T13:48:23.247Z,31.98
2018-09-10T13:50:50.983Z,30.98
2018-09-10T13:53:18.708Z,30.75
2018-09-10T13:55:46.405Z,31.66
2018-09-10T13:58:14.213Z,31.52
2018-09-10T14:00:41.913Z,31.74
2018-09-10T14:03:09.657Z,31.56
2018-09-10T14:05:37.419Z,30.53
2018-09-10T14:08:05.167Z,30.09
2018-09-10T14:10:32.972Z,31.05
2018-09-10T14:13:00.732Z,31.72
2018-09-10T14:15:28.613Z,30.02
2018-09-10T14:17:56.387Z,31.14
2018-09-10T14:20:24.205Z,30.35
2018-09-10T14:22:52.314Z,30.28
2018-09-10T14:25:20.374Z,30.65
2018-09-10T14:27:48.594Z,30.19
2018-09-10T14:30:16.348Z,30.04
2018-09-10T14:32:44.127Z,29.13
2018-09-10T14:35:12.056Z,29.35
2018-09-10T14:37:40.030Z,29.59
2018-09-10T14:40:07.818Z,29.16
2018-09-10T14:42:35.615Z,29.54
2018-09-10T14:45:03.429Z,29.28
2018-09-10T14:47:31.134Z,29.33
2018-09-10T14:49:58.896Z,28.89
2018-09-10T14:52:26.697Z,28.49
2018-09-10T14:54:54.401Z,28.26
2018-09-10T14:57:22.213Z,28.28
2018-09-10T14:59:49.930Z,27.07
2018-09-10T15:02:17.651Z,25.93
2018-09-10T15:04:45.401Z,25.83
2018-09-10T15:07:13.139Z,26.53
2018-09-10T15:09:40.901Z,27.06
2018-09-10T15:12:08.774Z,27.53
2018-09-10T15:14:36.581Z,27.95
2018-09-10T15:17:04.330Z,28.39
2018-09-10T15:19:32.141Z,27.62
2018-09-10T15:22:00.074Z,26.59
2018-09-10T15:24:27.839Z,26.17
2018-09-10T15:26:56.195Z,26.23
2018-09-10T15:29:23.925Z,26.43
2018-09-10T15:31:52.796Z,26.58
2018-09-10T15:34:20.576Z,26.73
2018-09-10T15:36:48.418Z,26.65
2018-09-10T15:39:16.152Z,26.81
2018-09-10T15:41:43.882Z,26.93
2018-09-10T15:44:11.674Z,27.26
2018-09-10T15:46:39.409Z,27.34
2018-09-10T15:49:07.250Z,27.43
2018-09-10T15:51:34.917Z,27.55
2018-09-10T15:54:02.644Z,27.57
2018-09-10T15:56:30.409Z,27.45
2018-09-10T15:58:58.274Z,27.40
2018-09-10T16:01:25.980Z,27.22
2018-09-10T16:03:53.771Z,26.97
2018-09-10T16:06:21.477Z,26.63
2018-09-10T16:08:49.497Z,26.36
2018-09-10T16:11:17.203Z,26.44
2018-09-10T16:13:44.957Z,26.37
2018-09-10T16:16:12.688Z,26.30
2018-09-10T16:18:40.429Z,26.21
2018-09-10T16:21:08.146Z,26.47
2018-09-10T16:23:35.890Z,26.70
2018-09-10T16:26:03.678Z,26.63
2018-09-10T16:28:31.351Z,26.51
2018-09-10T16:30:59.046Z,26.47
2018-09-10T16:33:26.808Z,26.12
2018-09-10T16:35:54.519Z,25.83
2018-09-10T16:38:22.284Z,25.57
2018-09-10T16:40:50.010Z,25.59
2018-09-10T16:43:17.729Z,25.36
2018-09-10T16:45:45.461Z,25.34
2018-09-10T16:48:13.290Z,25.25
2018-09-10T16:50:41.006Z,24.94
2018-09-10T16:53:08.697Z,24.70
2018-09-10T16:55:36.455Z,24.36
2018-09-10T16:58:04.150Z,24.18
2018-09-10T17:00:31.941Z,24.25
2018-09-10T17:02:59.630Z,23.99
2018-09-10T17:05:27.388Z,23.64
2018-09-10T17:07:55.097Z,23.49
2018-09-10T17:10:22.818Z,23.47
2018-09-10T17:12:50.563Z,23.41
2018-09-10T17:15:18.334Z,23.27
2018-09-10T17:17:46.065Z,22.94
2018-09-10T17:20:13.749Z,23.00
2018-09-10T17:22:48.209Z,22.89
2018-09-10T17:25:15.918Z,22.84
2018-09-10T17:27:43.690Z,22.98
2018-09-10T17:30:11.759Z,22.95
2018-09-10T17:32:39.598Z,22.95
2018-09-10T17:35:07.287Z,22.95
2018-09-10T17:37:35.114Z,22.93
2018-09-10T17:40:03.054Z,22.74
2018-09-10T17:42:30.885Z,22.84
2018-09-10T17:44:58.657Z,22.92
2018-09-10T17:47:26.447Z,22.94
2018-09-10T17:49:54.255Z,22.93
2018-09-10T17:52:22.827Z,22.86
2018-09-10T17:54:50.535Z,22.96
2018-09-10T17:57:18.529Z,22.99
2018-09-10T17:59:46.309Z,22.89
2018-09-10T18:02:14.059Z,22.94
2018-09-10T18:04:41.844Z,23.05
2018-09-10T18:07:09.582Z,23.04
2018-09-10T18:09:37.358Z,22.99
2018-09-10T18:12:05.249Z,23.03
2018-09-10T18:14:33.026Z,22.88
2018-09-10T18:17:00.790Z,22.82
2018-09-10T18:19:28.538Z,22.77
2018-09-10T18:21:56.481Z,22.74
2018-09-10T18:24:24.242Z,22.64
2018-09-10T18:26:51.948Z,22.44
2018-09-10T18:29:19.745Z,22.40
2018-09-10T18:31:47.461Z,22.29
2018-09-10T18:34:15.217Z,22.05
2018-09-10T18:36:43.359Z,22.25
2018-09-10T18:39:11.969Z,22.32
2018-09-10T18:41:39.751Z,22.26
2018-09-10T18:44:07.609Z,22.14
2018-09-10T18:46:35.322Z,22.09
2018-09-10T18:49:03.054Z,21.92
2018-09-10T18:51:30.887Z,21.88
2018-09-10T18:53:58.606Z,21.73
2018-09-10T18:56:26.337Z,21.72
2018-09-10T18:58:54.075Z,21.70
2018-09-10T19:01:22.017Z,21.71
2018-09-10T19:03:50.515Z,21.88
2018-09-10T19:06:18.324Z,21.98
2018-09-10T19:08:46.078Z,22.06
2018-09-10T19:11:13.862Z,22.25
2018-09-10T19:13:41.599Z,22.33
2018-09-10T19:16:09.324Z,22.42
2018-09-10T19:18:38.907Z,22.48
2018-09-10T19:21:07.313Z,22.51
2018-09-10T19:23:35.857Z,22.58
2018-09-10T19:26:03.849Z,22.61
2018-09-10T19:28:31.639Z,22.61
2018-09-10T19:30:59.521Z,22.68
2018-09-10T19:33:27.304Z,22.72
2018-09-10T19:35:55.322Z,22.84
2018-09-10T19:38:23.149Z,23.07
2018-09-10T19:40:50.900Z,23.12
2018-09-10T19:43:18.850Z,22.99
2018-09-10T19:45:46.636Z,23.07
2018-09-10T19:48:14.405Z,23.03
2018-09-10T19:50:42.229Z,22.97
2018-09-10T19:53:10.303Z,22.85
2018-09-10T19:55:38.102Z,22.71
2018-09-10T19:58:05.978Z,22.90
2018-09-10T20:00:33.721Z,22.76
2018-09-10T20:03:01.613Z,22.75
2018-09-10T20:05:29.406Z,22.94
2018-09-10T20:07:57.111Z,22.94
2018-09-10T20:10:24.813Z,22.92
2018-09-10T20:12:53.037Z,23.04
2018-09-10T20:15:20.840Z,23.11
2018-09-10T20:17:48.614Z,23.07
2018-09-10T20:20:16.410Z,23.11
2018-09-10T20:22:44.186Z,23.17
2018-09-10T20:25:11.971Z,23.00
2018-09-10T20:27:39.781Z,22.89
2018-09-10T20:30:07.655Z,22.87
2018-09-10T20:32:35.377Z,22.77
2018-09-10T20:35:03.577Z,22.65
2018-09-10T20:37:31.518Z,22.50
2018-09-10T20:40:00.098Z,22.33
2018-09-10T20:42:27.918Z,22.17
2018-09-10T20:44:55.625Z,22.04
2018-09-10T20:47:23.345Z,21.98
2018-09-10T20:49:51.162Z,21.93
2018-09-10T20:52:19.077Z,21.72
2018-09-10T20:54:46.669Z,21.51
2018-09-10T20:57:14.369Z,21.50
2018-09-10T20:59:42.080Z,21.49
2018-09-10T21:02:09.778Z,21.40
2018-09-10T21:04:37.580Z,21.36
2018-09-10T21:07:05.405Z,21.32
2018-09-10T21:09:33.048Z,21.30
2018-09-10T21:12:00.813Z,21.26
2018-09-10T21:14:28.529Z,21.23
2018-09-10T21:16:56.253Z,21.22
2018-09-10T21:19:23.968Z,21.22
2018-09-10T21:21:51.682Z,21.23
2018-09-10T21:24:19.416Z,21.17
2018-09-10T21:26:47.220Z,21.13
2018-09-10T21:29:14.922Z,21.13
2018-09-10T21:31:42.606Z,21.18
2018-09-10T21:34:10.326Z,21.19
2018-09-10T21:36:38.031Z,21.17
2018-09-10T21:39:07.295Z,21.27
2018-09-10T21:41:35.014Z,21.27
2018-09-10T21:44:02.745Z,21.55
2018-09-10T21:46:30.458Z,21.63
2018-09-10T21:48:58.199Z,21.63
2018-09-10T21:51:25.922Z,21.73
2018-09-10T21:53:53.636Z,21.75
2018-09-10T21:56:21.329Z,21.74
2018-09-10T21:58:48.978Z,21.95
2018-09-10T22:01:16.733Z,22.05
2018-09-10T22:03:44.511Z,22.01
2018-09-10T22:06:12.225Z,22.13
2018-09-10T22:08:39.984Z,22.02
2018-09-10T22:11:07.958Z,22.19
2018-09-10T22:13:35.706Z,22.20
2018-09-10T22:16:03.457Z,22.21
2018-09-10T22:18:31.206Z,22.28
2018-09-10T22:20:58.870Z,22.31
2018-09-10T22:23:26.614Z,22.36
2018-09-10T22:25:54.327Z,22.34
2018-09-10T22:28:22.015Z,22.27
2018-09-10T22:30:49.855Z,22.41
2018-09-10T22:33:17.570Z,22.22
2018-09-10T22:35:45.266Z,22.35
2018-09-10T22:38:12.904Z,22.05
2018-09-10T22:40:40.610Z,22.10
2018-09-10T22:43:08.296Z,22.15
2018-09-10T22:45:36.010Z,21.95
2018-09-10T22:48:03.721Z,22.13
2018-09-10T22:50:31.401Z,22.12
2018-09-10T22:52:59.125Z,22.15
2018-09-10T22:55:26.831Z,22.23
2018-09-10T22:57:54.500Z,22.00
2018-09-10T23:00:22.224Z,22.12
2018-09-10T23:02:50.298Z,22.06
2018-09-10T23:05:17.981Z,22.02
2018-09-10T23:07:45.648Z,22.10
2018-09-10T23:10:13.388Z,22.09
2018-09-10T23:12:41.076Z,22.12
2018-09-10T23:15:08.862Z,21.98
2018-09-10T23:17:36.566Z,21.87
2018-09-10T23:20:04.643Z,22.03
2018-09-10T23:22:32.309Z,22.00
2018-09-10T23:25:00.010Z,21.82
2018-09-10T23:27:27.700Z,21.69
2018-09-10T23:29:55.371Z,21.71
2018-09-10T23:32:23.136Z,21.78
2018-09-10T23:34:50.797Z,21.77
2018-09-10T23:39:51.929Z,21.72
2018-09-10T23:42:19.595Z,21.65
2018-09-10T23:44:47.264Z,21.55
2018-09-10T23:47:15.005Z,21.58
2018-09-10T23:49:42.671Z,21.42
2018-09-10T23:52:10.345Z,21.56
2018-09-10T23:54:38.057Z,21.39
2018-09-10T23:57:05.793Z,21.42
2018-09-10T23:59:33.482Z,21.19
